Scott City, Kansas
Current Conditions -  °F | °C
As of 11:54 PM on Thursday 27 Nov 2014 (Local Time) from KGCK Reporting Station
Clear Clear  
Wind Chill: 30°   Ceiling: Unl
Heat Index: 36°   Visibility: 10mi
Dew Point: 28°   Wind: 8mph
Humidity: 73%   Direction: 210°SSW
Pressure: 30.05"   Gusts: NA
Location:  38.48°N, 100.91°W
Report Text: KGCK 280554Z AUTO 21007KT 10SM CLR 02/M02 A3005 RMK AO2 SLP181 T00221022 10083 20022 401331072 56010
Loading
Personal Weather Stations






























Interactive Weather Map New forecast layout! Learn more

10-Day Weather Forecast

Advertisements
Track Severe Weather on mobile